sensor_id;sensor_type;location;lat;lon;timestamp;pressure;altitude;pressure_sealevel;temperature;humidity
41218;BME280;26950;50.960;7.138;2023-05-09T00:00:03;100823.72;;;19.60;66.24
41218;BME280;26950;50.960;7.138;2023-05-09T00:02:31;100829.97;;;19.47;66.35
41218;BME280;26950;50.960;7.138;2023-05-09T00:04:58;100823.75;;;19.55;66.28
41218;BME280;26950;50.960;7.138;2023-05-09T00:07:27;100829.00;;;19.69;65.79
41218;BME280;26950;50.960;7.138;2023-05-09T00:09:54;100821.97;;;19.51;66.00
41218;BME280;26950;50.960;7.138;2023-05-09T00:12:21;100811.41;;;19.37;67.11
41218;BME280;26950;50.960;7.138;2023-05-09T00:14:49;100808.69;;;19.50;66.46
41218;BME280;26950;50.960;7.138;2023-05-09T00:17:15;100813.09;;;19.51;66.04
41218;BME280;26950;50.960;7.138;2023-05-09T00:19:42;100811.31;;;19.62;66.08
41218;BME280;26950;50.960;7.138;2023-05-09T00:22:09;100802.50;;;19.40;66.72
41218;BME280;26950;50.960;7.138;2023-05-09T00:24:38;100798.94;;;19.46;66.34
41218;BME280;26950;50.960;7.138;2023-05-09T00:27:05;100794.44;;;19.63;65.76
41218;BME280;26950;50.960;7.138;2023-05-09T00:29:32;100795.41;;;19.44;65.98
41218;BME280;26950;50.960;7.138;2023-05-09T00:31:59;100791.78;;;19.60;65.85
41218;BME280;26950;50.960;7.138;2023-05-09T00:34:26;100784.69;;;19.62;65.61
41218;BME280;26950;50.960;7.138;2023-05-09T00:36:52;100782.94;;;19.58;65.91
41218;BME280;26950;50.960;7.138;2023-05-09T00:39:19;100772.28;;;19.52;66.22
41218;BME280;26950;50.960;7.138;2023-05-09T00:41:46;100770.47;;;19.57;65.70
41218;BME280;26950;50.960;7.138;2023-05-09T00:44:12;100775.88;;;19.45;66.08
41218;BME280;26950;50.960;7.138;2023-05-09T00:46:39;100773.25;;;19.38;66.46
41218;BME280;26950;50.960;7.138;2023-05-09T00:49:07;100776.09;;;19.05;67.31
41218;BME280;26950;50.960;7.138;2023-05-09T00:51:35;100770.66;;;19.28;66.83
41218;BME280;26950;50.960;7.138;2023-05-09T00:54:02;100768.84;;;19.37;66.34
41218;BME280;26950;50.960;7.138;2023-05-09T00:56:28;100761.72;;;19.39;66.39
41218;BME280;26950;50.960;7.138;2023-05-09T00:58:55;100759.06;;;19.38;66.61
41218;BME280;26950;50.960;7.138;2023-05-09T01:01:22;100759.06;;;19.38;66.28
41218;BME280;26950;50.960;7.138;2023-05-09T01:03:48;100756.44;;;19.36;66.19
41218;BME280;26950;50.960;7.138;2023-05-09T01:06:21;100754.63;;;19.35;66.40
41218;BME280;26950;50.960;7.138;2023-05-09T01:08:57;100745.81;;;19.30;66.63
41218;BME280;26950;50.960;7.138;2023-05-09T01:11:31;100736.91;;;19.37;66.09
41218;BME280;26950;50.960;7.138;2023-05-09T01:14:07;100737.75;;;19.41;66.27
41218;BME280;26950;50.960;7.138;2023-05-09T01:16:40;100736.84;;;19.42;65.94
41218;BME280;26950;50.960;7.138;2023-05-09T01:19:18;100732.44;;;19.43;65.97
41218;BME280;26950;50.960;7.138;2023-05-09T01:21:54;100740.47;;;19.33;66.12
41218;BME280;26950;50.960;7.138;2023-05-09T01:24:33;100743.13;;;19.36;65.86
41218;BME280;26950;50.960;7.138;2023-05-09T01:27:20;100743.97;;;19.40;65.85
41218;BME280;26950;50.960;7.138;2023-05-09T01:29:51;100735.09;;;19.41;65.84
41218;BME280;26950;50.960;7.138;2023-05-09T01:32:23;100742.25;;;19.33;66.00
41218;BME280;26950;50.960;7.138;2023-05-09T01:34:51;100735.22;;;19.17;66.55
41218;BME280;26950;50.960;7.138;2023-05-09T01:37:23;100728.09;;;19.23;66.24
41218;BME280;26950;50.960;7.138;2023-05-09T01:39:53;100721.03;;;19.21;66.19
41218;BME280;26950;50.960;7.138;2023-05-09T01:42:21;100726.31;;;19.25;66.05
41218;BME280;26950;50.960;7.138;2023-05-09T01:44:53;100717.44;;;19.26;65.73
41218;BME280;26950;50.960;7.138;2023-05-09T01:47:20;100720.16;;;19.19;65.81
41218;BME280;26950;50.960;7.138;2023-05-09T01:49:46;100722.81;;;19.20;66.25
41218;BME280;26950;50.960;7.138;2023-05-09T01:52:15;100724.66;;;19.06;66.45
41218;BME280;26950;50.960;7.138;2023-05-09T01:54:44;100724.59;;;19.15;66.37
41218;BME280;26950;50.960;7.138;2023-05-09T01:57:11;100720.13;;;19.25;66.29
41218;BME280;26950;50.960;7.138;2023-05-09T01:59:40;100726.41;;;19.13;66.09
41218;BME280;26950;50.960;7.138;2023-05-09T02:02:09;100725.56;;;19.02;66.81
41218;BME280;26950;50.960;7.138;2023-05-09T02:04:37;100722.13;;;18.75;67.63
41218;BME280;26950;50.960;7.138;2023-05-09T02:07:07;100721.13;;;19.01;67.13
41218;BME280;26950;50.960;7.138;2023-05-09T02:09:33;100725.47;;;19.20;66.16
41218;BME280;26950;50.960;7.138;2023-05-09T02:12:00;100729.91;;;19.15;66.27
41218;BME280;26950;50.960;7.138;2023-05-09T02:14:28;100724.50;;;19.29;65.67
41218;BME280;26950;50.960;7.138;2023-05-09T02:16:55;100721.81;;;19.35;65.20
41218;BME280;26950;50.960;7.138;2023-05-09T02:19:23;100718.31;;;19.30;65.76
41218;BME280;26950;50.960;7.138;2023-05-09T02:21:50;100721.00;;;19.22;65.76
41218;BME280;26950;50.960;7.138;2023-05-09T02:24:16;100720.03;;;19.35;65.61
41218;BME280;26950;50.960;7.138;2023-05-09T02:26:43;100728.09;;;19.25;65.74
41218;BME280;26950;50.960;7.138;2023-05-09T02:29:10;100710.31;;;19.33;65.52
41218;BME280;26950;50.960;7.138;2023-05-09T02:31:39;100718.28;;;19.33;65.69
41218;BME280;26950;50.960;7.138;2023-05-09T02:34:07;100711.16;;;19.35;65.69
41218;BME280;26950;50.960;7.138;2023-05-09T02:36:35;100703.25;;;19.27;65.52
41218;BME280;26950;50.960;7.138;2023-05-09T02:39:03;100712.03;;;19.38;65.35
41218;BME280;26950;50.960;7.138;2023-05-09T02:41:29;100708.53;;;19.29;65.43
41218;BME280;26950;50.960;7.138;2023-05-09T02:43:56;100710.31;;;19.31;65.28
41218;BME280;26950;50.960;7.138;2023-05-09T02:46:22;100707.63;;;19.34;65.46
41218;BME280;26950;50.960;7.138;2023-05-09T02:48:49;100706.75;;;19.34;65.65
41218;BME280;26950;50.960;7.138;2023-05-09T02:51:16;100697.88;;;19.33;65.63
41218;BME280;26950;50.960;7.138;2023-05-09T02:53:44;100699.69;;;19.28;66.26
41218;BME280;26950;50.960;7.138;2023-05-09T02:56:10;100701.44;;;19.32;66.13
41218;BME280;26950;50.960;7.138;2023-05-09T02:58:36;100695.25;;;19.32;66.02
41218;BME280;26950;50.960;7.138;2023-05-09T03:01:03;100699.66;;;19.36;65.95
41218;BME280;26950;50.960;7.138;2023-05-09T03:03:30;100693.44;;;19.35;65.79
41218;BME280;26950;50.960;7.138;2023-05-09T03:05:58;100684.69;;;19.17;66.06
41218;BME280;26950;50.960;7.138;2023-05-09T03:08:25;100688.19;;;19.23;65.97
41218;BME280;26950;50.960;7.138;2023-05-09T03:10:53;100681.06;;;19.27;66.09
41218;BME280;26950;50.960;7.138;2023-05-09T03:13:19;100681.13;;;19.16;65.88
41218;BME280;26950;50.960;7.138;2023-05-09T03:15:45;100674.94;;;19.17;66.07
41218;BME280;26950;50.960;7.138;2023-05-09T03:18:12;100683.97;;;18.87;67.37
41218;BME280;26950;50.960;7.138;2023-05-09T03:20:38;100676.72;;;19.10;66.62
41218;BME280;26950;50.960;7.138;2023-05-09T03:23:05;100671.47;;;19.03;66.89
41218;BME280;26950;50.960;7.138;2023-05-09T03:25:31;100674.03;;;19.17;66.47
41218;BME280;26950;50.960;7.138;2023-05-09T03:27:59;100671.34;;;19.24;66.42
41218;BME280;26950;50.960;7.138;2023-05-09T03:30:26;100662.75;;;18.76;67.70
41218;BME280;26950;50.960;7.138;2023-05-09T03:32:52;100671.50;;;18.97;67.30
41218;BME280;26950;50.960;7.138;2023-05-09T03:35:19;100672.31;;;19.12;66.88
41218;BME280;26950;50.960;7.138;2023-05-09T03:37:45;100670.50;;;19.18;66.68
41218;BME280;26950;50.960;7.138;2023-05-09T03:40:12;100669.56;;;19.26;66.15
41218;BME280;26950;50.960;7.138;2023-05-09T03:42:38;100671.31;;;19.30;66.37
41218;BME280;26950;50.960;7.138;2023-05-09T03:45:07;100669.50;;;19.32;66.50
41218;BME280;26950;50.960;7.138;2023-05-09T03:47:34;100670.44;;;19.25;66.43
41218;BME280;26950;50.960;7.138;2023-05-09T03:50:00;100661.66;;;19.14;66.75
41218;BME280;26950;50.960;7.138;2023-05-09T03:52:28;100659.84;;;19.24;66.66
41218;BME280;26950;50.960;7.138;2023-05-09T03:54:54;100650.03;;;19.27;66.62
41218;BME280;26950;50.960;7.138;2023-05-09T03:57:21;100642.06;;;19.27;66.57
41218;BME280;26950;50.960;7.138;2023-05-09T03:59:47;100643.78;;;19.33;66.32
41218;BME280;26950;50.960;7.138;2023-05-09T04:02:15;100646.44;;;19.33;66.66
41218;BME280;26950;50.960;7.138;2023-05-09T04:04:41;100651.75;;;19.34;66.72
41218;BME280;26950;50.960;7.138;2023-05-09T04:07:08;100657.09;;;19.31;66.62
41218;BME280;26950;50.960;7.138;2023-05-09T04:09:35;100652.69;;;19.30;66.42
41218;BME280;26950;50.960;7.138;2023-05-09T04:12:02;100643.75;;;19.34;66.75
41218;BME280;26950;50.960;7.138;2023-05-09T04:14:28;100636.69;;;19.33;66.36
41218;BME280;26950;50.960;7.138;2023-05-09T04:16:55;100637.56;;;19.34;66.65
41218;BME280;26950;50.960;7.138;2023-05-09T04:19:22;100638.44;;;19.34;66.63
41218;BME280;26950;50.960;7.138;2023-05-09T04:21:49;100639.31;;;19.38;66.24
41218;BME280;26950;50.960;7.138;2023-05-09T04:24:15;100633.97;;;19.39;66.56
41218;BME280;26950;50.960;7.138;2023-05-09T04:26:42;100629.63;;;19.31;66.53
41218;BME280;26950;50.960;7.138;2023-05-09T04:29:09;100634.84;;;19.41;66.44
41218;BME280;26950;50.960;7.138;2023-05-09T04:31:35;100624.13;;;19.48;66.04
41218;BME280;26950;50.960;7.138;2023-05-09T04:34:01;100623.31;;;19.44;66.27
41218;BME280;26950;50.960;7.138;2023-05-09T04:36:29;100622.44;;;19.39;66.39
41218;BME280;26950;50.960;7.138;2023-05-09T04:38:58;100617.09;;;19.40;66.54
41218;BME280;26950;50.960;7.138;2023-05-09T04:41:24;100611.75;;;19.42;66.52
41218;BME280;26950;50.960;7.138;2023-05-09T04:43:51;100613.53;;;19.41;66.37
41218;BME280;26950;50.960;7.138;2023-05-09T04:46:18;100613.63;;;19.34;67.04
41218;BME280;26950;50.960;7.138;2023-05-09T04:48:44;100611.72;;;19.47;66.37
41218;BME280;26950;50.960;7.138;2023-05-09T04:51:11;100619.84;;;19.33;67.05
41218;BME280;26950;50.960;7.138;2023-05-09T04:53:38;100623.47;;;19.21;67.27
41218;BME280;26950;50.960;7.138;2023-05-09T04:56:05;100604.84;;;19.21;67.51
41218;BME280;26950;50.960;7.138;2023-05-09T04:58:31;100608.25;;;19.40;66.99
41218;BME280;26950;50.960;7.138;2023-05-09T05:00:58;100608.44;;;19.19;67.73
41218;BME280;26950;50.960;7.138;2023-05-09T05:03:25;100602.91;;;19.40;67.05
41218;BME280;26950;50.960;7.138;2023-05-09T05:05:51;100605.63;;;19.35;66.98
41218;BME280;26950;50.960;7.138;2023-05-09T05:08:18;100615.25;;;19.52;66.48
41218;BME280;26950;50.960;7.138;2023-05-09T05:10:45;100605.56;;;19.45;66.88
41218;BME280;26950;50.960;7.138;2023-05-09T05:13:16;100605.44;;;19.57;66.41
41218;BME280;26950;50.960;7.138;2023-05-09T05:15:42;100598.44;;;19.47;66.57
41218;BME280;26950;50.960;7.138;2023-05-09T05:18:09;100602.09;;;19.33;67.59
41218;BME280;26950;50.960;7.138;2023-05-09T05:20:35;100606.41;;;19.47;66.90
41218;BME280;26950;50.960;7.138;2023-05-09T05:23:02;100610.94;;;19.34;67.84
41218;BME280;26950;50.960;7.138;2023-05-09T05:25:28;100608.19;;;19.49;67.20
41218;BME280;26950;50.960;7.138;2023-05-09T05:27:56;100600.09;;;19.60;67.02
41218;BME280;26950;50.960;7.138;2023-05-09T05:30:23;100599.16;;;19.65;66.75
41218;BME280;26950;50.960;7.138;2023-05-09T05:32:49;100602.66;;;19.74;66.62
41218;BME280;26950;50.960;7.138;2023-05-09T05:35:16;100602.03;;;19.43;67.31
41218;BME280;26950;50.960;7.138;2023-05-09T05:37:43;100595.69;;;19.62;67.23
41218;BME280;26950;50.960;7.138;2023-05-09T05:40:10;100588.66;;;19.49;67.33
41218;BME280;26950;50.960;7.138;2023-05-09T05:42:36;100579.69;;;19.60;67.42
41218;BME280;26950;50.960;7.138;2023-05-09T05:45:06;100580.38;;;19.79;66.64
41218;BME280;26950;50.960;7.138;2023-05-09T05:47:33;100580.38;;;19.82;66.55
41218;BME280;26950;50.960;7.138;2023-05-09T05:50:01;100579.41;;;19.89;66.39
41218;BME280;26950;50.960;7.138;2023-05-09T05:52:28;100573.09;;;20.00;66.29
41218;BME280;26950;50.960;7.138;2023-05-09T05:54:55;100573.88;;;20.08;66.24
41218;BME280;26950;50.960;7.138;2023-05-09T05:57:21;100576.13;;;19.63;67.00
41218;BME280;26950;50.960;7.138;2023-05-09T05:59:48;100572.78;;;19.38;68.75
41218;BME280;26950;50.960;7.138;2023-05-09T06:02:17;100571.00;;;19.38;68.90
41218;BME280;26950;50.960;7.138;2023-05-09T06:04:43;100566.47;;;19.50;68.73
41218;BME280;26950;50.960;7.138;2023-05-09T06:07:11;100561.94;;;19.61;68.09
41218;BME280;26950;50.960;7.138;2023-05-09T06:09:38;100552.41;;;19.34;69.04
41218;BME280;26950;50.960;7.138;2023-05-09T06:12:04;100566.50;;;19.47;68.75
41218;BME280;26950;50.960;7.138;2023-05-09T06:14:31;100557.31;;;19.81;67.67
41218;BME280;26950;50.960;7.138;2023-05-09T06:16:58;100558.03;;;19.96;67.36
41218;BME280;26950;50.960;7.138;2023-05-09T06:19:26;100555.56;;;19.77;68.28
41218;BME280;26950;50.960;7.138;2023-05-09T06:21:52;100555.09;;;20.17;66.75
41218;BME280;26950;50.960;7.138;2023-05-09T06:24:19;100555.03;;;20.23;66.14
41218;BME280;26950;50.960;7.138;2023-05-09T06:26:45;100547.47;;;19.88;67.53
41218;BME280;26950;50.960;7.138;2023-05-09T06:29:12;100550.97;;;19.93;67.40
41218;BME280;26950;50.960;7.138;2023-05-09T06:31:39;100547.59;;;19.76;68.03
41218;BME280;26950;50.960;7.138;2023-05-09T06:34:06;100552.13;;;19.69;68.31
41218;BME280;26950;50.960;7.138;2023-05-09T06:36:34;100542.41;;;19.63;68.53
41218;BME280;26950;50.960;7.138;2023-05-09T06:39:00;100546.91;;;19.52;68.86
41218;BME280;26950;50.960;7.138;2023-05-09T06:41:27;100536.00;;;19.81;68.18
41218;BME280;26950;50.960;7.138;2023-05-09T06:43:53;100536.22;;;19.63;68.61
41218;BME280;26950;50.960;7.138;2023-05-09T06:46:20;100536.44;;;19.37;69.66
41218;BME280;26950;50.960;7.138;2023-05-09T06:48:46;100528.09;;;19.72;68.64
41218;BME280;26950;50.960;7.138;2023-05-09T06:51:13;100525.31;;;19.84;68.05
41218;BME280;26950;50.960;7.138;2023-05-09T06:53:41;100515.84;;;20.31;66.87
41218;BME280;26950;50.960;7.138;2023-05-09T06:56:08;100518.72;;;20.14;67.05
41218;BME280;26950;50.960;7.138;2023-05-09T06:58:34;100520.25;;;19.60;68.72
41218;BME280;26950;50.960;7.138;2023-05-09T07:01:01;100519.00;;;19.91;67.34
41218;BME280;26950;50.960;7.138;2023-05-09T07:03:28;100515.06;;;20.23;66.90
41218;BME280;26950;50.960;7.138;2023-05-09T07:05:55;100517.28;;;20.58;65.95
41218;BME280;26950;50.960;7.138;2023-05-09T07:08:23;100518.13;;;19.91;66.97
41218;BME280;26950;50.960;7.138;2023-05-09T07:10:51;100505.88;;;19.76;68.51
41218;BME280;26950;50.960;7.138;2023-05-09T07:13:17;100509.19;;;20.64;65.65
41218;BME280;26950;50.960;7.138;2023-05-09T07:15:44;100500.16;;;20.73;65.09
41218;BME280;26950;50.960;7.138;2023-05-09T07:18:10;100494.81;;;20.73;64.56
41218;BME280;26950;50.960;7.138;2023-05-09T07:20:37;100495.91;;;20.60;64.80
41218;BME280;26950;50.960;7.138;2023-05-09T07:23:03;100487.38;;;20.33;65.05
41218;BME280;26950;50.960;7.138;2023-05-09T07:25:30;100487.09;;;20.56;65.20
41218;BME280;26950;50.960;7.138;2023-05-09T07:27:58;100489.50;;;21.24;63.16
41218;BME280;26950;50.960;7.138;2023-05-09T07:30:24;100483.13;;;20.82;63.75
41218;BME280;26950;50.960;7.138;2023-05-09T07:32:51;100472.94;;;21.05;63.42
41218;BME280;26950;50.960;7.138;2023-05-09T07:35:18;100481.72;;;21.13;62.08
41218;BME280;26950;50.960;7.138;2023-05-09T07:37:45;100476.25;;;20.67;63.78
41218;BME280;26950;50.960;7.138;2023-05-09T07:40:12;100471.16;;;21.06;63.01
41218;BME280;26950;50.960;7.138;2023-05-09T07:42:38;100478.84;;;20.71;63.41
41218;BME280;26950;50.960;7.138;2023-05-09T07:45:07;100468.84;;;20.84;63.05
41218;BME280;26950;50.960;7.138;2023-05-09T07:47:35;100461.88;;;20.77;62.29
41218;BME280;26950;50.960;7.138;2023-05-09T07:50:01;100461.91;;;20.76;61.76
41218;BME280;26950;50.960;7.138;2023-05-09T07:52:27;100462.88;;;20.70;61.62
41218;BME280;26950;50.960;7.138;2023-05-09T07:54:54;100470.09;;;20.63;62.21
41218;BME280;26950;50.960;7.138;2023-05-09T07:57:20;100450.19;;;21.35;59.99
41218;BME280;26950;50.960;7.138;2023-05-09T07:59:47;100446.41;;;20.97;60.61
41218;BME280;26950;50.960;7.138;2023-05-09T08:02:15;100444.81;;;20.86;61.19
41218;BME280;26950;50.960;7.138;2023-05-09T08:04:41;100453.03;;;20.75;61.24
41218;BME280;26950;50.960;7.138;2023-05-09T08:07:08;100441.78;;;20.56;61.99
41218;BME280;26950;50.960;7.138;2023-05-09T08:09:36;100447.66;;;20.77;62.00
41218;BME280;26950;50.960;7.138;2023-05-09T08:12:02;100439.47;;;20.87;60.54
41218;BME280;26950;50.960;7.138;2023-05-09T08:14:29;100432.56;;;21.25;58.75
41218;BME280;26950;50.960;7.138;2023-05-09T08:16:55;100440.44;;;20.83;60.31
41218;BME280;26950;50.960;7.138;2023-05-09T08:19:23;100437.25;;;20.60;60.82
41218;BME280;26950;50.960;7.138;2023-05-09T08:21:50;100431.63;;;20.78;60.08
41218;BME280;26950;50.960;7.138;2023-05-09T08:24:16;100413.69;;;20.32;61.32
41218;BME280;26950;50.960;7.138;2023-05-09T08:26:43;100422.50;;;20.91;59.26
41218;BME280;26950;50.960;7.138;2023-05-09T08:29:10;100413.38;;;21.05;59.67
41218;BME280;26950;50.960;7.138;2023-05-09T08:31:36;100411.16;;;20.79;60.10
41218;BME280;26950;50.960;7.138;2023-05-09T08:34:03;100416.84;;;21.10;58.89
41218;BME280;26950;50.960;7.138;2023-05-09T08:36:30;100415.38;;;20.93;59.25
41218;BME280;26950;50.960;7.138;2023-05-09T08:38:58;100404.91;;;21.74;56.34
41218;BME280;26950;50.960;7.138;2023-05-09T08:41:25;100395.69;;;21.47;55.77
41218;BME280;26950;50.960;7.138;2023-05-09T08:43:52;100387.19;;;21.70;55.18
41218;BME280;26950;50.960;7.138;2023-05-09T08:46:23;100382.91;;;21.61;53.56
41218;BME280;26950;50.960;7.138;2023-05-09T08:48:51;100379.91;;;21.78;53.22
41218;BME280;26950;50.960;7.138;2023-05-09T08:51:18;100387.16;;;22.50;50.75
41218;BME280;26950;50.960;7.138;2023-05-09T08:53:47;100373.59;;;22.56;49.92
41218;BME280;26950;50.960;7.138;2023-05-09T08:56:13;100370.31;;;23.46;48.43
41218;BME280;26950;50.960;7.138;2023-05-09T08:58:40;100368.34;;;23.53;47.81
41218;BME280;26950;50.960;7.138;2023-05-09T09:01:08;100365.84;;;23.78;48.04
41218;BME280;26950;50.960;7.138;2023-05-09T09:03:36;100365.91;;;24.04;47.13
41218;BME280;26950;50.960;7.138;2023-05-09T09:06:03;100358.34;;;23.28;49.39
41218;BME280;26950;50.960;7.138;2023-05-09T09:08:33;100344.47;;;23.14;49.75
41218;BME280;26950;50.960;7.138;2023-05-09T09:11:01;100365.97;;;23.42;49.56
41218;BME280;26950;50.960;7.138;2023-05-09T09:13:29;100358.16;;;22.33;50.50
41218;BME280;26950;50.960;7.138;2023-05-09T09:15:56;100361.03;;;22.60;49.97
41218;BME280;26950;50.960;7.138;2023-05-09T09:18:28;100349.66;;;22.52;50.79
41218;BME280;26950;50.960;7.138;2023-05-09T09:20:57;100346.19;;;22.48;50.06
41218;BME280;26950;50.960;7.138;2023-05-09T09:23:25;100340.47;;;22.64;49.53
41218;BME280;26950;50.960;7.138;2023-05-09T09:25:58;100345.84;;;22.26;50.03
41218;BME280;26950;50.960;7.138;2023-05-09T09:28:26;100343.25;;;22.23;49.78
41218;BME280;26950;50.960;7.138;2023-05-09T09:30:53;100340.03;;;22.09;50.44
41218;BME280;26950;50.960;7.138;2023-05-09T09:33:20;100330.25;;;22.78;49.63
41218;BME280;26950;50.960;7.138;2023-05-09T09:35:47;100323.53;;;22.63;49.40
41218;BME280;26950;50.960;7.138;2023-05-09T09:38:16;100320.91;;;22.94;49.84
41218;BME280;26950;50.960;7.138;2023-05-09T09:40:48;100319.84;;;23.01;49.35
41218;BME280;26950;50.960;7.138;2023-05-09T09:43:14;100322.25;;;22.78;49.06
41218;BME280;26950;50.960;7.138;2023-05-09T09:45:42;100327.97;;;22.28;50.42
41218;BME280;26950;50.960;7.138;2023-05-09T09:48:09;100311.19;;;22.92;49.00
41218;BME280;26950;50.960;7.138;2023-05-09T09:50:35;100301.41;;;22.91;49.33
41218;BME280;26950;50.960;7.138;2023-05-09T09:53:02;100294.66;;;22.76;48.46
41218;BME280;26950;50.960;7.138;2023-05-09T09:55:28;100304.81;;;23.56;48.33
41218;BME280;26950;50.960;7.138;2023-05-09T09:57:55;100296.78;;;23.58;49.57
41218;BME280;26950;50.960;7.138;2023-05-09T10:00:24;100295.00;;;22.64;49.78
41218;BME280;26950;50.960;7.138;2023-05-09T10:02:54;100293.69;;;22.08;51.55
41218;BME280;26950;50.960;7.138;2023-05-09T10:05:22;100277.28;;;22.92;49.64
41218;BME280;26950;50.960;7.138;2023-05-09T10:07:50;100285.09;;;23.00;49.83
41218;BME280;26950;50.960;7.138;2023-05-09T10:10:19;100289.16;;;23.74;48.55
41218;BME280;26950;50.960;7.138;2023-05-09T10:12:46;100275.41;;;23.25;49.64
41218;BME280;26950;50.960;7.138;2023-05-09T10:15:15;100274.06;;;23.71;47.43
41218;BME280;26950;50.960;7.138;2023-05-09T10:17:44;100263.38;;;24.24;47.46
41218;BME280;26950;50.960;7.138;2023-05-09T10:20:12;100262.09;;;24.09;47.59
41218;BME280;26950;50.960;7.138;2023-05-09T10:22:39;100262.66;;;23.64;47.85
41218;BME280;26950;50.960;7.138;2023-05-09T10:25:10;100265.41;;;23.61;48.28
41218;BME280;26950;50.960;7.138;2023-05-09T10:27:41;100257.22;;;23.94;48.20
41218;BME280;26950;50.960;7.138;2023-05-09T10:30:12;100260.03;;;23.33;49.04
41218;BME280;26950;50.960;7.138;2023-05-09T10:32:44;100250.00;;;23.40;48.59
41218;BME280;26950;50.960;7.138;2023-05-09T10:35:16;100251.00;;;23.36;48.87
41218;BME280;26950;50.960;7.138;2023-05-09T10:37:43;100248.50;;;23.30;48.69
41218;BME280;26950;50.960;7.138;2023-05-09T10:40:10;100248.63;;;23.55;47.29
41218;BME280;26950;50.960;7.138;2023-05-09T10:42:39;100247.59;;;23.31;47.82
41218;BME280;26950;50.960;7.138;2023-05-09T10:45:08;100249.53;;;22.96;46.96
41218;BME280;26950;50.960;7.138;2023-05-09T10:47:35;100235.13;;;22.68;48.69
41218;BME280;26950;50.960;7.138;2023-05-09T10:50:03;100230.78;;;22.31;48.30
41218;BME280;26950;50.960;7.138;2023-05-09T10:52:32;100232.84;;;22.85;47.54
41218;BME280;26950;50.960;7.138;2023-05-09T10:55:00;100228.75;;;23.04;46.99
41218;BME280;26950;50.960;7.138;2023-05-09T10:57:28;100218.06;;;23.63;45.61
41218;BME280;26950;50.960;7.138;2023-05-09T10:59:55;100207.50;;;23.85;46.84
41218;BME280;26950;50.960;7.138;2023-05-09T11:02:22;100200.72;;;24.27;46.86
41218;BME280;26950;50.960;7.138;2023-05-09T11:05:17;100195.69;;;23.91;48.21
41218;BME280;26950;50.960;7.138;2023-05-09T11:07:45;100206.22;;;23.41;48.57
41218;BME280;26950;50.960;7.138;2023-05-09T11:10:14;100187.47;;;23.41;47.63
41218;BME280;26950;50.960;7.138;2023-05-09T11:12:54;100191.28;;;22.73;50.07
41218;BME280;26950;50.960;7.138;2023-05-09T11:15:21;100192.59;;;23.19;50.92
41218;BME280;26950;50.960;7.138;2023-05-09T11:17:50;100191.28;;;23.04;49.72
41218;BME280;26950;50.960;7.138;2023-05-09T11:20:32;100181.06;;;22.87;50.09
41218;BME280;26950;50.960;7.138;2023-05-09T11:23:03;100175.28;;;22.72;55.01
41218;BME280;26950;50.960;7.138;2023-05-09T11:25:30;100174.19;;;22.79;54.01
41218;BME280;26950;50.960;7.138;2023-05-09T11:27:58;100176.19;;;22.40;52.76
41218;BME280;26950;50.960;7.138;2023-05-09T11:30:34;100172.69;;;22.69;55.37
41218;BME280;26950;50.960;7.138;2023-05-09T11:33:01;100160.22;;;22.68;52.75
41218;BME280;26950;50.960;7.138;2023-05-09T11:35:31;100163.13;;;22.60;53.00
41218;BME280;26950;50.960;7.138;2023-05-09T11:38:00;100157.09;;;22.53;50.77
41218;BME280;26950;50.960;7.138;2023-05-09T11:40:28;100153.19;;;22.65;49.69
41218;BME280;26950;50.960;7.138;2023-05-09T11:42:56;100144.50;;;22.26;50.62
41218;BME280;26950;50.960;7.138;2023-05-09T11:45:26;100147.84;;;22.65;51.86
41218;BME280;26950;50.960;7.138;2023-05-09T11:47:53;100140.06;;;22.56;49.77
41218;BME280;26950;50.960;7.138;2023-05-09T11:50:21;100142.53;;;22.32;50.35
41218;BME280;26950;50.960;7.138;2023-05-09T11:52:48;100135.41;;;22.62;51.67
41218;BME280;26950;50.960;7.138;2023-05-09T11:55:17;100122.88;;;22.96;51.88
41218;BME280;26950;50.960;7.138;2023-05-09T11:57:47;100128.25;;;22.94;52.46
41218;BME280;26950;50.960;7.138;2023-05-09T12:00:15;100116.34;;;23.04;51.19
41218;BME280;26950;50.960;7.138;2023-05-09T12:02:43;100125.19;;;23.08;52.70
41218;BME280;26950;50.960;7.138;2023-05-09T12:05:11;100119.16;;;23.01;50.08
41218;BME280;26950;50.960;7.138;2023-05-09T12:07:38;100108.81;;;22.89;51.37
41218;BME280;26950;50.960;7.138;2023-05-09T12:10:06;100101.38;;;22.99;53.90
41218;BME280;26950;50.960;7.138;2023-05-09T12:12:35;100100.94;;;22.53;53.13
41218;BME280;26950;50.960;7.138;2023-05-09T12:15:02;100102.63;;;22.85;51.79
41218;BME280;26950;50.960;7.138;2023-05-09T12:17:29;100091.19;;;23.10;51.23
41218;BME280;26950;50.960;7.138;2023-05-09T12:19:57;100097.25;;;22.87;50.74
41218;BME280;26950;50.960;7.138;2023-05-09T12:22:24;100083.16;;;22.82;52.38
41218;BME280;26950;50.960;7.138;2023-05-09T12:24:51;100089.38;;;22.81;51.61
41218;BME280;26950;50.960;7.138;2023-05-09T12:27:18;100085.50;;;22.63;51.32
41218;BME280;26950;50.960;7.138;2023-05-09T12:29:47;100072.59;;;23.07;52.53
41218;BME280;26950;50.960;7.138;2023-05-09T12:32:14;100073.91;;;22.92;50.34
41218;BME280;26950;50.960;7.138;2023-05-09T12:34:41;100065.25;;;22.84;49.75
41218;BME280;26950;50.960;7.138;2023-05-09T12:37:13;100063.91;;;23.25;49.64
41218;BME280;26950;50.960;7.138;2023-05-09T12:39:40;100060.88;;;23.09;48.99
41218;BME280;26950;50.960;7.138;2023-05-09T12:42:11;100062.63;;;23.10;48.85
41218;BME280;26950;50.960;7.138;2023-05-09T12:44:37;100056.47;;;23.08;50.52
41218;BME280;26950;50.960;7.138;2023-05-09T12:47:05;100058.16;;;22.83;51.77
41218;BME280;26950;50.960;7.138;2023-05-09T12:49:35;100049.00;;;23.18;49.93
41218;BME280;26950;50.960;7.138;2023-05-09T12:52:02;100047.16;;;23.20;49.85